We konden geen weer-waarchuwingen ophalen. Ga rechtstreeks naar de Meteoalarm site : www.meteoalarm.eu en controleer daar .


Onweer radar Meer informatie blitzortung!


Regen radar Meer informatie rain snow radar



METAR rapporten vliegvelden

   
EHGR - Dalem
Gewijzigd: 18-07-2024 07:25
Nevel, Bewolking  
Nevel, Bewolking  
   Wind: Kalm
Wind: Kalm
Temperatuur: 15°C
Dauwpunt: 15°C
Vochtigheid: 100%
Barometer: 1022 hPa
Bewolking: Bewolking
Zicht: 8 km
Bewolking: Bewolking 30000 ft
EHGR 180525Z AUTO 00000KT 8000 BR OVC300 15/15 Q1022 BLU
EHGR - Roosendaal
Gewijzigd: 18-07-2024 07:25
Nevel, Bewolking  
Nevel, Bewolking  
   Wind: Kalm
Wind: Kalm
Temperatuur: 15°C
Dauwpunt: 15°C
Vochtigheid: 100%
Barometer: 1022 hPa
Bewolking: Bewolking
Zicht: 8 km
Bewolking: Bewolking 30000 ft
EHGR 180525Z AUTO 00000KT 8000 BR OVC300 15/15 Q1022 BLU
EHRD - Rotterdam
Gewijzigd: 18-07-2024 07:25
Gedeeltelijk bewolkt  
Gedeeltelijk bewolkt  
   Wind: varieert 1 m/s
Wind: varieert 1 m/s
Temperatuur: 15°C
Dauwpunt: 15°C
Vochtigheid: 100%
Barometer: 1022 hPa
Bewolking: Gedeeltelijk bewolkt
Zicht: 5 km
Bewolking: Gedeeltelijk bewolkt
EHRD 180525Z AUTO VRB02KT 5000 NSC 15/15 Q1022 BECMG 5000 NSW
EHLW - Urk
Gewijzigd: 18-07-2024 07:25
Bewolking  
Bewolking  
   Wind: ZZO 1.5 m/s
Wind: ZZO 1.5 m/s
Temperatuur: 16°C
Dauwpunt: 14°C
Vochtigheid: 88%
Barometer: 1022 hPa
Bewolking: Bewolking
Zicht: meer dan 10 km
Bewolking: Bewolking 23000 ft
EHLW 180525Z AUTO 16003KT 110V170 9999 OVC230 16/14 Q1022 BLU
EHDL - Veenendaal
Gewijzigd: 18-07-2024 07:25
Nevel, Bewolking  
Nevel, Bewolking  
   Wind: varieert 0.5 m/s
Wind: varieert 0.5 m/s
Temperatuur: 14°C
Dauwpunt: 14°C
Vochtigheid: 100%
Barometer: 1022 hPa
Bewolking: Bewolking
Zicht: 7 km
Bewolking: Bewolking 34000 ft
EHDL 180525Z AUTO VRB01KT 7000 BR OVC340 14/14 Q1022 WHT
EHRD - Vianen
Gewijzigd: 18-07-2024 07:25
Gedeeltelijk bewolkt  
Gedeeltelijk bewolkt  
   Wind: varieert 1 m/s
Wind: varieert 1 m/s
Temperatuur: 15°C
Dauwpunt: 15°C
Vochtigheid: 100%
Barometer: 1022 hPa
Bewolking: Gedeeltelijk bewolkt
Zicht: 5 km
Bewolking: Gedeeltelijk bewolkt
EHRD 180525Z AUTO VRB02KT 5000 NSC 15/15 Q1022 BECMG 5000 NSW

Script ontwikkeld door  Saratoga-weather.org Aangepast voor de template door  Weerstation Leuven

U vindt ons ook hier:

Het Weer Aktueel

UK Metoffice

European Weather Network

WeatherCloud

Weather Underground

AWEKAS

Citizen Weather Observer Program (CWOP)

HAMweather, WeatherForYou, PWS Weather

Apparatuur in gebruik:

Weerstation
Davis VP2 weatherstation

Weerprogramma
Meteobridge

Weercomputer
Asus WL_330N3G

Davis VP2 weatherstation

Meteobridge

Asus WL_330N3G